Menifee, California
Current Conditions -  °F | °C
As of 7:55 AM on Friday 24 Oct 2014 (Local Time) from KF70 Reporting Station
Clear Clear  
Wind Chill: 57°   Ceiling: Unl
Heat Index: 57°   Visibility: 10mi
Dew Point: 37°   Wind: 5mph
Humidity: 48%   Direction: 360°N
Pressure: 30.04"   Gusts: NA
Location:  33.66°N, 117.18°W
Report Text: KF70 241455Z AUTO 36004KT 10SM CLR 14/03 A3004 RMK AO1
Loading
Personal Weather Stations






























Interactive Weather Map New forecast layout! Learn more

10-Day Weather Forecast

Advertisements
Track Severe Weather on mobile